createdAt,value
2022-08-28T00:00:39.791Z,101028.41
2022-08-28T00:03:09.375Z,101029.13
2022-08-28T00:05:40.034Z,101038.13
2022-08-28T00:08:10.205Z,101040.69
2022-08-28T00:10:40.237Z,101037.25
2022-08-28T00:13:10.260Z,101035.50
2022-08-28T00:15:39.372Z,101036.19
2022-08-28T00:18:08.967Z,101036.53
2022-08-28T00:20:39.711Z,101031.94
2022-08-28T00:23:08.062Z,101031.94
2022-08-28T00:25:37.404Z,101040.38
2022-08-28T00:28:08.797Z,101039.63
2022-08-28T00:30:40.513Z,101034.44
2022-08-28T00:33:12.684Z,101034.44
2022-08-28T00:35:43.432Z,101036.25
2022-08-28T00:38:13.089Z,101029.28
2022-08-28T00:40:44.465Z,101038.06
2022-08-28T00:43:33.615Z,101044.88
2022-08-28T00:46:03.967Z,101025.72
2022-08-28T00:48:32.819Z,101043.06
2022-08-28T00:51:21.544Z,101042.03
2022-08-28T00:53:49.895Z,101040.22
2022-08-28T00:56:20.340Z,101035.88
2022-08-28T00:58:52.536Z,101036.59
2022-08-28T01:01:20.659Z,101035.13
2022-08-28T01:03:48.832Z,101035.81
2022-08-28T01:06:20.866Z,101021.81
2022-08-28T01:08:52.610Z,101024.03
2022-08-28T01:11:22.228Z,101027.97
2022-08-28T01:13:51.417Z,101031.72
2022-08-28T01:16:21.503Z,101039.06
2022-08-28T01:18:51.391Z,101028.53
2022-08-28T01:21:29.347Z,101036.75
2022-08-28T01:24:03.068Z,101035.66
2022-08-28T01:26:31.380Z,101035.81
2022-08-28T01:29:00.559Z,101034.78
2022-08-28T01:31:31.288Z,101041.19
2022-08-28T01:34:01.026Z,101039.44
2022-08-28T01:36:30.546Z,101042.31
2022-08-28T01:39:05.656Z,101043.19
2022-08-28T01:41:35.442Z,101049.41
2022-08-28T01:44:03.665Z,101045.59
2022-08-28T01:46:32.089Z,101045.88
2022-08-28T01:49:01.044Z,101047.84
2022-08-28T01:51:33.018Z,101054.16
2022-08-28T01:54:04.894Z,101061.19
2022-08-28T01:56:33.523Z,101052.63
2022-08-28T01:59:03.625Z,101062.22
2022-08-28T02:01:31.728Z,101056.25
2022-08-28T02:04:00.057Z,101060.09
2022-08-28T02:06:28.235Z,101056.63
2022-08-28T02:08:56.504Z,101058.50
2022-08-28T02:11:26.100Z,101051.59
2022-08-28T02:13:56.373Z,101049.69
2022-08-28T02:16:24.691Z,101067.31
2022-08-28T02:18:53.127Z,101060.31
2022-08-28T02:21:21.895Z,101053.31
2022-08-28T02:23:49.888Z,101064.13
2022-08-28T02:26:18.599Z,101067.59
2022-08-28T02:28:48.357Z,101063.41
2022-08-28T02:31:16.673Z,101060.91
2022-08-28T02:33:45.945Z,101075.19
2022-08-28T02:36:15.853Z,101073.72
2022-08-28T02:38:47.605Z,101074.47
2022-08-28T02:41:15.720Z,101071.97
2022-08-28T02:43:43.889Z,101050.44
2022-08-28T02:46:13.831Z,101069.56
2022-08-28T02:48:42.267Z,101065.91
2022-08-28T02:51:13.235Z,101060.56
2022-08-28T02:53:41.743Z,101061.59
2022-08-28T02:56:12.210Z,101063.56
2022-08-28T02:58:40.844Z,101058.13
2022-08-28T03:01:10.931Z,101059.25
2022-08-28T03:03:41.689Z,101055.72
2022-08-28T03:06:12.098Z,101061.00
2022-08-28T03:08:40.499Z,101048.97
2022-08-28T03:11:09.167Z,101052.44
2022-08-28T03:13:37.255Z,101051.66
2022-08-28T03:16:05.700Z,101048.09
2022-08-28T03:18:34.243Z,101062.63
2022-08-28T03:21:03.976Z,101059.16
2022-08-28T03:23:32.106Z,101074.44
2022-08-28T03:26:02.268Z,101044.94
2022-08-28T03:28:33.040Z,101059.03
2022-08-28T03:31:01.696Z,101065.31
2022-08-28T03:33:30.006Z,101049.59
2022-08-28T03:35:59.405Z,101057.13
2022-08-28T03:38:29.387Z,101059.81
2022-08-28T03:40:57.560Z,101053.75
2022-08-28T03:43:27.905Z,101062.72
2022-08-28T03:45:58.857Z,101063.78
2022-08-28T03:48:28.984Z,101060.16
2022-08-28T03:50:57.369Z,101067.25
2022-08-28T03:53:29.442Z,101064.84
2022-08-28T03:55:58.631Z,101065.84
2022-08-28T03:58:28.269Z,101060.63
2022-08-28T04:00:56.582Z,101066.78
2022-08-28T04:03:24.773Z,101063.38
2022-08-28T04:05:52.965Z,101074.25
2022-08-28T04:08:23.064Z,101079.09
2022-08-28T04:10:53.954Z,101080.28
2022-08-28T04:13:22.908Z,101076.00
2022-08-28T04:15:58.711Z,101078.69
2022-08-28T04:18:27.215Z,101080.59
2022-08-28T04:21:00.049Z,101072.91
2022-08-28T04:23:28.137Z,101083.78
2022-08-28T04:25:57.646Z,101088.97
2022-08-28T04:28:26.909Z,101071.66
2022-08-28T04:30:56.315Z,101095.50
2022-08-28T04:33:25.979Z,101091.03
2022-08-28T04:35:54.453Z,101090.94
2022-08-28T04:38:22.917Z,101098.00
2022-08-28T04:40:50.948Z,101092.59
2022-08-28T04:43:21.273Z,101096.22
2022-08-28T04:45:49.449Z,101099.81
2022-08-28T04:48:17.776Z,101098.88
2022-08-28T04:50:48.179Z,101096.88
2022-08-28T04:53:18.956Z,101098.97
2022-08-28T04:55:53.826Z,101105.97
2022-08-28T04:58:24.554Z,101103.16
2022-08-28T05:00:54.967Z,101101.47
2022-08-28T05:03:24.285Z,101103.16
2022-08-28T05:05:54.431Z,101107.69
2022-08-28T05:08:26.844Z,101104.69
2022-08-28T05:10:56.077Z,101105.03
2022-08-28T05:13:26.294Z,101105.03
2022-08-28T05:15:55.333Z,101103.00
2022-08-28T05:18:27.350Z,101097.53
2022-08-28T05:20:55.345Z,101097.59
2022-08-28T05:23:25.835Z,101104.56
2022-08-28T05:25:53.980Z,101089.13
2022-08-28T05:28:24.455Z,101107.19
2022-08-28T05:30:54.214Z,101104.25
2022-08-28T05:33:22.563Z,101113.09
2022-08-28T05:35:50.616Z,101113.81
2022-08-28T05:38:18.618Z,101110.16
2022-08-28T05:40:49.121Z,101066.56
2022-08-28T05:43:18.701Z,101113.69
2022-08-28T05:45:46.893Z,101110.00
2022-08-28T05:48:43.980Z,101000.94
2022-08-28T05:51:14.320Z,101120.00
2022-08-28T05:53:44.800Z,101111.97
2022-08-28T05:56:15.876Z,101122.81
2022-08-28T05:58:44.168Z,101121.88
2022-08-28T06:01:14.130Z,101125.19
2022-08-28T06:03:47.330Z,101130.03
2022-08-28T06:06:15.192Z,101121.03
2022-08-28T06:08:58.288Z,101127.81
2022-08-28T06:11:30.629Z,101125.50
2022-08-28T06:14:02.451Z,101132.16
2022-08-28T06:16:31.864Z,101133.22
2022-08-28T06:19:01.427Z,101140.03
2022-08-28T06:21:29.768Z,101138.91
2022-08-28T06:23:57.879Z,101137.41
2022-08-28T06:26:26.789Z,101142.06
2022-08-28T06:28:55.589Z,101148.66
2022-08-28T06:31:26.533Z,101158.50
2022-08-28T06:33:57.050Z,101162.84
2022-08-28T06:36:28.625Z,101157.22
2022-08-28T06:38:58.469Z,101160.34
2022-08-28T06:41:27.307Z,101157.66
2022-08-28T06:43:55.742Z,101167.72
2022-08-28T06:46:25.052Z,101167.03
2022-08-28T06:48:53.272Z,101164.84
2022-08-28T06:51:23.219Z,101166.75
2022-08-28T06:53:54.539Z,101175.50
2022-08-28T06:56:26.781Z,101176.34
2022-08-28T06:58:56.388Z,101177.72
2022-08-28T07:01:27.123Z,101172.25
2022-08-28T07:03:56.842Z,101168.97
2022-08-28T07:06:25.040Z,101172.41
2022-08-28T07:08:54.417Z,101171.94
2022-08-28T07:11:26.357Z,101181.38
2022-08-28T07:13:55.266Z,101175.34
2022-08-28T07:16:25.930Z,101170.50
2022-08-28T07:18:54.584Z,101174.09
2022-08-28T07:21:22.747Z,101181.66
2022-08-28T07:23:51.538Z,101180.41
2022-08-28T07:26:23.763Z,101181.53
2022-08-28T07:28:52.644Z,101185.00
2022-08-28T07:31:37.734Z,101183.75
2022-08-28T07:34:05.949Z,101188.84
2022-08-28T07:36:33.902Z,101186.16
2022-08-28T07:39:01.909Z,101185.75
2022-08-28T07:41:32.930Z,101175.88
2022-08-28T07:44:18.902Z,101183.81
2022-08-28T07:46:46.963Z,101174.06
2022-08-28T07:49:17.280Z,101175.16
2022-08-28T07:51:46.732Z,101175.41
2022-08-28T07:54:18.033Z,101175.63
2022-08-28T07:56:48.194Z,101174.88
2022-08-28T07:59:17.481Z,101173.44
2022-08-28T08:01:49.054Z,101179.09
2022-08-28T08:04:17.985Z,101180.69
2022-08-28T08:06:46.806Z,101180.56
2022-08-28T08:09:16.971Z,101173.97
2022-08-28T08:11:45.373Z,101164.25
2022-08-28T08:14:15.187Z,101187.81
2022-08-28T08:16:45.700Z,101173.50
2022-08-28T08:19:15.022Z,101175.69
2022-08-28T08:21:44.685Z,101175.28
2022-08-28T08:24:19.600Z,101166.97
2022-08-28T08:26:55.199Z,101166.41
2022-08-28T08:29:31.392Z,101173.25
2022-08-28T08:32:05.615Z,101173.56
2022-08-28T08:34:36.443Z,101174.44
2022-08-28T08:37:05.742Z,101170.66
2022-08-28T08:39:34.066Z,101175.31
2022-08-28T08:42:04.889Z,101180.88
2022-08-28T08:44:37.438Z,101178.00
2022-08-28T08:47:14.965Z,101181.59
2022-08-28T08:49:51.253Z,101176.56
2022-08-28T08:52:37.751Z,101180.00
2022-08-28T08:55:20.688Z,101171.25
2022-08-28T08:57:55.756Z,101179.97
2022-08-28T09:00:26.269Z,101175.13
2022-08-28T09:03:01.475Z,101177.78
2022-08-28T09:05:43.435Z,101176.72
2022-08-28T09:08:19.698Z,101164.19
2022-08-28T09:11:05.154Z,101183.41
2022-08-28T09:13:45.596Z,101180.91
2022-08-28T09:16:25.337Z,101183.56
2022-08-28T09:18:56.393Z,101181.84
2022-08-28T09:21:29.263Z,101183.22
2022-08-28T09:24:05.727Z,101182.69
2022-08-28T09:26:34.572Z,101180.38
2022-08-28T09:29:06.726Z,101177.53
2022-08-28T09:31:39.510Z,101172.16
2022-08-28T09:34:30.376Z,101177.03
2022-08-28T09:36:59.725Z,101171.97
2022-08-28T09:39:30.289Z,101187.13
2022-08-28T09:42:21.179Z,101187.28
2022-08-28T09:44:56.252Z,101184.31
2022-08-28T09:47:46.630Z,101190.97
2022-08-28T09:50:26.002Z,101185.16
2022-08-28T09:52:55.694Z,101184.66
2022-08-28T09:55:37.736Z,101186.53
2022-08-28T09:58:06.464Z,101183.47
2022-08-28T10:00:48.805Z,101173.81
2022-08-28T10:03:23.789Z,101169.75
2022-08-28T10:06:04.008Z,101178.03
2022-08-28T10:08:51.578Z,101173.53
2022-08-28T10:11:25.897Z,101175.56
2022-08-28T10:14:06.913Z,101174.44
2022-08-28T10:16:41.945Z,101181.81
2022-08-28T10:19:24.147Z,101189.44
2022-08-28T10:22:04.922Z,101184.31
2022-08-28T10:24:52.079Z,101182.44
2022-08-28T10:27:36.639Z,101175.34
2022-08-28T10:30:12.545Z,101169.81
2022-08-28T10:33:02.969Z,101171.88
2022-08-28T10:35:42.759Z,101152.81
2022-08-28T10:38:16.179Z,101180.47
2022-08-28T10:40:55.561Z,101180.63
2022-08-28T10:43:31.673Z,101166.41
2022-08-28T10:46:05.382Z,101171.06
2022-08-28T10:48:39.605Z,101178.53
2022-08-28T10:51:14.202Z,101179.44
2022-08-28T10:53:45.389Z,101168.31
2022-08-28T10:56:18.089Z,101166.06
2022-08-28T10:58:48.378Z,101174.28
2022-08-28T11:01:24.335Z,101174.53
2022-08-28T11:03:53.360Z,101169.75
2022-08-28T11:06:29.306Z,101175.97
2022-08-28T11:09:20.708Z,101168.56
2022-08-28T11:11:51.011Z,101170.31
2022-08-28T11:14:29.834Z,101102.56
2022-08-28T11:17:01.643Z,101163.34
2022-08-28T11:19:51.689Z,101167.38
2022-08-28T11:22:24.678Z,101168.66
2022-08-28T11:25:04.454Z,101178.38
2022-08-28T11:27:39.529Z,101169.66
2022-08-28T11:30:33.398Z,101167.34
2022-08-28T11:33:10.762Z,101160.03
2022-08-28T11:35:43.354Z,101178.66
2022-08-28T11:38:15.581Z,101161.38
2022-08-28T11:40:56.531Z,101172.53
2022-08-28T11:43:38.782Z,101160.69
2022-08-28T11:46:29.052Z,101164.31
2022-08-28T11:49:36.975Z,101157.00
2022-08-28T11:52:16.237Z,101165.81
2022-08-28T11:54:56.423Z,101160.16
2022-08-28T11:57:29.611Z,101172.25
2022-08-28T12:00:10.451Z,101168.47
2022-08-28T12:03:10.795Z,101156.16
2022-08-28T12:05:47.842Z,101147.34
2022-08-28T12:08:49.071Z,101169.38
2022-08-28T12:11:50.039Z,101160.50
2022-08-28T12:15:03.881Z,101159.81
2022-08-28T12:17:53.900Z,101141.19
2022-08-28T12:21:00.266Z,101152.91
2022-08-28T12:23:43.141Z,101149.34
2022-08-28T12:26:22.303Z,101156.72
2022-08-28T12:28:53.674Z,101153.81
2022-08-28T12:32:07.547Z,101119.94
2022-08-28T12:34:55.537Z,101145.88
2022-08-28T12:37:29.715Z,101144.19
2022-08-28T12:40:03.057Z,101138.06
2022-08-28T12:42:35.317Z,101132.84
2022-08-28T12:45:08.391Z,101130.31
2022-08-28T12:47:38.969Z,101119.13
2022-08-28T12:50:25.669Z,101130.63
2022-08-28T12:52:55.828Z,101137.56
2022-08-28T12:55:25.371Z,101143.03
2022-08-28T12:57:55.021Z,101124.78
2022-08-28T13:00:28.113Z,101135.56
2022-08-28T13:02:57.992Z,101134.03
2022-08-28T13:05:33.842Z,101129.28
2022-08-28T13:08:05.709Z,101133.59
2022-08-28T13:10:38.426Z,101133.28
2022-08-28T13:13:10.927Z,101126.56
2022-08-28T13:15:53.386Z,101130.19
2022-08-28T13:18:45.964Z,101115.06
2022-08-28T13:21:37.377Z,101117.34
2022-08-28T13:24:26.292Z,101120.81
2022-08-28T13:27:03.934Z,101121.16
2022-08-28T13:29:32.967Z,101108.25
2022-08-28T13:32:05.096Z,101112.69
2022-08-28T13:34:35.389Z,101113.41
2022-08-28T13:37:07.407Z,101116.53
2022-08-28T13:39:43.140Z,101111.34
2022-08-28T13:42:13.667Z,101115.94
2022-08-28T13:44:48.555Z,101119.91
2022-08-28T13:47:18.428Z,101124.69
2022-08-28T13:49:46.570Z,101104.56
2022-08-28T13:52:14.867Z,101121.94
2022-08-28T13:54:45.223Z,101124.38
2022-08-28T13:57:14.593Z,101114.53
2022-08-28T13:59:42.776Z,101122.31
2022-08-28T14:02:31.141Z,101118.28
2022-08-28T14:05:03.738Z,101110.66
2022-08-28T14:07:31.839Z,101120.53
2022-08-28T14:10:00.270Z,101120.44
2022-08-28T14:12:32.939Z,101112.75
2022-08-28T14:15:02.634Z,101080.16
2022-08-28T14:17:31.784Z,101105.16
2022-08-28T14:20:01.807Z,101093.03
2022-08-28T14:22:30.961Z,101118.19
2022-08-28T14:24:59.031Z,101110.69
2022-08-28T14:27:27.319Z,101097.63
2022-08-28T14:29:55.832Z,101110.50
2022-08-28T14:32:24.137Z,101110.78
2022-08-28T14:34:52.407Z,101085.38
2022-08-28T14:37:21.912Z,101098.84
2022-08-28T14:39:50.886Z,101092.91
2022-08-28T14:42:22.351Z,101092.69
2022-08-28T14:44:50.536Z,101106.44
2022-08-28T14:47:18.685Z,101079.28
2022-08-28T14:49:46.773Z,101105.53
2022-08-28T14:52:15.149Z,101102.38
2022-08-28T14:54:44.529Z,101103.19
2022-08-28T14:57:13.620Z,101103.41
2022-08-28T14:59:42.194Z,101115.66
2022-08-28T15:02:10.829Z,101095.09
2022-08-28T15:04:39.003Z,101104.91
2022-08-28T15:07:10.680Z,101104.50
2022-08-28T15:09:41.424Z,101099.28
2022-08-28T15:12:11.726Z,101117.66
2022-08-28T15:14:40.079Z,101109.16
2022-08-28T15:17:09.397Z,101114.41
2022-08-28T15:19:37.441Z,101115.41
2022-08-28T15:22:05.595Z,101108.38
2022-08-28T15:24:34.591Z,101108.88
2022-08-28T15:27:03.701Z,101114.00
2022-08-28T15:29:33.321Z,101109.50
2022-08-28T15:32:01.979Z,101104.34
2022-08-28T15:34:30.525Z,101090.31
2022-08-28T15:36:59.306Z,101116.94
2022-08-28T15:39:46.420Z,101120.81
2022-08-28T15:42:24.462Z,101108.66
2022-08-28T15:44:54.205Z,101079.16
2022-08-28T15:47:22.297Z,101120.13
2022-08-28T15:50:16.945Z,101109.41
2022-08-28T15:52:48.403Z,101114.97
2022-08-28T15:55:16.599Z,101117.69
2022-08-28T15:57:45.099Z,101111.84
2022-08-28T16:00:16.300Z,101114.81
2022-08-28T16:02:44.525Z,101108.91
2022-08-28T16:05:15.887Z,101090.16
2022-08-28T16:07:44.727Z,101114.19
2022-08-28T16:10:13.795Z,101119.66
2022-08-28T16:12:42.571Z,101121.94
2022-08-28T16:15:17.048Z,101123.25
2022-08-28T16:17:48.801Z,101125.81
2022-08-28T16:20:16.863Z,101112.09
2022-08-28T16:22:45.341Z,101129.75
2022-08-28T16:25:14.015Z,101129.97
2022-08-28T16:27:42.135Z,101122.38
2022-08-28T16:30:15.718Z,101136.72
2022-08-28T16:35:33.160Z,101130.91
2022-08-28T16:35:56.734Z,101129.91
2022-08-28T16:38:05.200Z,101133.66
2022-08-28T16:40:33.930Z,101141.28
2022-08-28T16:43:02.069Z,101130.69
2022-08-28T16:45:31.582Z,101127.34
2022-08-28T16:48:00.081Z,101137.72
2022-08-28T16:50:31.661Z,101138.97
2022-08-28T16:53:03.654Z,101132.22
2022-08-28T16:55:35.542Z,101135.69
2022-08-28T16:58:04.253Z,101146.66
2022-08-28T17:00:34.080Z,101143.72
2022-08-28T17:03:12.531Z,101150.59
2022-08-28T17:05:41.248Z,101142.47
2022-08-28T17:08:10.094Z,101152.16
2022-08-28T17:10:38.415Z,101146.25
2022-08-28T17:13:06.490Z,101162.31
2022-08-28T17:15:35.892Z,101149.38
2022-08-28T17:18:04.039Z,101145.09
2022-08-28T17:21:01.252Z,101152.91
2022-08-28T17:23:29.188Z,101151.16
2022-08-28T17:25:57.690Z,101147.78
2022-08-28T17:28:25.898Z,101107.78
2022-08-28T17:30:55.735Z,101148.28
2022-08-28T17:33:24.073Z,101147.22
2022-08-28T17:35:54.980Z,101147.06
2022-08-28T17:38:23.392Z,101150.34
2022-08-28T17:40:51.633Z,101152.63
2022-08-28T17:43:19.781Z,101143.91
2022-08-28T17:45:48.223Z,101146.91
2022-08-28T17:48:18.270Z,101150.22
2022-08-28T17:50:46.980Z,101162.13
2022-08-28T17:53:15.050Z,101155.94
2022-08-28T17:55:43.071Z,101152.22
2022-08-28T17:58:11.752Z,101154.34
2022-08-28T18:00:40.485Z,101157.44
2022-08-28T18:03:08.630Z,101158.66
2022-08-28T18:05:39.115Z,101161.03
2022-08-28T18:08:09.016Z,101162.34
2022-08-28T18:10:37.493Z,101166.84
2022-08-28T18:13:06.613Z,101171.91
2022-08-28T18:15:36.794Z,101176.69
2022-08-28T18:18:05.390Z,101176.13
2022-08-28T18:20:33.663Z,101183.88
2022-08-28T18:23:03.498Z,101188.19
2022-08-28T18:25:50.284Z,101187.75
2022-08-28T18:28:22.413Z,101192.47
2022-08-28T18:30:52.555Z,101194.91
2022-08-28T18:33:23.678Z,101193.25
2022-08-28T18:35:53.317Z,101185.69
2022-08-28T18:38:26.197Z,101192.56
2022-08-28T18:40:54.535Z,101192.19
2022-08-28T18:43:22.669Z,101195.09
2022-08-28T18:45:51.410Z,101198.00
2022-08-28T18:48:20.084Z,101204.53
2022-08-28T18:50:48.584Z,101208.41
2022-08-28T18:53:19.200Z,101209.34
2022-08-28T18:55:51.139Z,101215.06
2022-08-28T18:58:21.045Z,101219.88
2022-08-28T19:00:49.487Z,101222.84
2022-08-28T19:03:17.612Z,101220.53
2022-08-28T19:05:45.828Z,101225.06
2022-08-28T19:08:14.397Z,101233.66
2022-08-28T19:10:46.661Z,101239.13
2022-08-28T19:13:16.230Z,101235.56
2022-08-28T19:15:50.031Z,101237.88
2022-08-28T19:18:18.682Z,101242.78
2022-08-28T19:20:47.389Z,101245.69
2022-08-28T19:23:17.771Z,101246.97
2022-08-28T19:25:48.391Z,101253.63
2022-08-28T19:28:17.812Z,101259.16
2022-08-28T19:30:47.409Z,101261.47
2022-08-28T19:33:16.785Z,101261.16
2022-08-28T19:35:45.053Z,101257.88
2022-08-28T19:38:13.306Z,101258.75
2022-08-28T19:40:41.481Z,101259.31
2022-08-28T19:43:09.723Z,101269.28
2022-08-28T19:45:46.615Z,101274.88
2022-08-28T19:48:14.943Z,101275.22
2022-08-28T19:50:43.985Z,101273.75
2022-08-28T19:53:13.362Z,101277.59
2022-08-28T19:55:41.488Z,101285.06
2022-08-28T19:58:10.358Z,101288.88
2022-08-28T20:00:38.460Z,101286.75
2022-08-28T20:03:08.139Z,101299.66
2022-08-28T20:05:38.365Z,101298.97
2022-08-28T20:08:06.651Z,101300.22
2022-08-28T20:10:34.907Z,101297.06
2022-08-28T20:13:03.071Z,101298.44
2022-08-28T20:15:31.243Z,101305.91
2022-08-28T20:17:59.352Z,101303.09
2022-08-28T20:20:30.101Z,101305.03
2022-08-28T20:22:58.215Z,101310.56
2022-08-28T20:25:27.294Z,101307.44
2022-08-28T20:27:59.558Z,101316.63
2022-08-28T20:30:29.737Z,101316.97
2022-08-28T20:32:58.486Z,101320.94
2022-08-28T20:35:28.173Z,101325.63
2022-08-28T20:37:56.203Z,101315.50
2022-08-28T20:40:24.544Z,101321.94
2022-08-28T20:42:52.585Z,101319.50
2022-08-28T20:45:21.930Z,101316.38
2022-08-28T20:47:49.889Z,101320.94
2022-08-28T20:50:17.996Z,101319.47
2022-08-28T20:52:47.435Z,101320.31
2022-08-28T20:55:15.510Z,101319.84
2022-08-28T20:57:43.539Z,101320.13
2022-08-28T21:00:12.938Z,101324.06
2022-08-28T21:02:41.015Z,101332.41
2022-08-28T21:05:10.016Z,101341.31
2022-08-28T21:07:38.084Z,101338.22
2022-08-28T21:10:08.340Z,101346.50
2022-08-28T21:12:37.093Z,101340.59
2022-08-28T21:15:06.273Z,101345.03
2022-08-28T21:17:34.419Z,101346.91
2022-08-28T21:20:05.423Z,101336.97
2022-08-28T21:22:34.512Z,101337.91
2022-08-28T21:25:04.512Z,101334.13
2022-08-28T21:27:34.410Z,101326.56
2022-08-28T21:30:02.726Z,101334.19
2022-08-28T21:32:32.634Z,101337.25
2022-08-28T21:35:00.985Z,101330.66
2022-08-28T21:37:29.185Z,101334.56
2022-08-28T21:39:59.630Z,101339.91
2022-08-28T21:42:28.772Z,101345.59
2022-08-28T21:44:58.381Z,101339.84
2022-08-28T21:47:27.213Z,101343.72
2022-08-28T21:49:57.185Z,101345.03
2022-08-28T21:52:29.019Z,101345.03
2022-08-28T21:54:59.213Z,101333.00
2022-08-28T21:57:27.795Z,101334.00
2022-08-28T21:59:56.278Z,101345.88
2022-08-28T22:02:25.862Z,101340.97
2022-08-28T22:04:54.160Z,101340.97
2022-08-28T22:07:22.529Z,101339.16
2022-08-28T22:09:51.476Z,101343.19
2022-08-28T22:12:19.839Z,101342.59
2022-08-28T22:14:47.912Z,101342.66
2022-08-28T22:17:16.273Z,101340.34
2022-08-28T22:19:46.598Z,101351.25
2022-08-28T22:22:32.935Z,101340.84
2022-08-28T22:25:01.059Z,101341.84
2022-08-28T22:27:29.350Z,101340.84
2022-08-28T22:29:57.363Z,101349.81
2022-08-28T22:32:26.888Z,101339.38
2022-08-28T22:34:56.522Z,101345.75
2022-08-28T22:37:25.770Z,101341.97
2022-08-28T22:39:54.064Z,101351.88
2022-08-28T22:42:23.016Z,101349.34
2022-08-28T22:44:51.203Z,101351.06
2022-08-28T22:47:19.520Z,101340.38
2022-08-28T22:49:47.835Z,101343.41
2022-08-28T22:52:18.090Z,101345.38
2022-08-28T22:54:46.354Z,101346.94
2022-08-28T22:57:14.868Z,101353.50
2022-08-28T22:59:42.935Z,101345.31
2022-08-28T23:02:12.141Z,101356.94
2022-08-28T23:04:40.587Z,101347.84
2022-08-28T23:07:08.775Z,101349.75
2022-08-28T23:09:38.777Z,101357.94
2022-08-28T23:12:08.446Z,101354.50
2022-08-28T23:14:36.389Z,101350.13
2022-08-28T23:17:04.619Z,101356.28
2022-08-28T23:19:32.635Z,101355.69
2022-08-28T23:22:01.144Z,101351.50
2022-08-28T23:24:31.367Z,101355.88
2022-08-28T23:27:19.344Z,101362.50
2022-08-28T23:29:51.735Z,101360.13
2022-08-28T23:32:21.646Z,101355.00
2022-08-28T23:34:50.132Z,101353.63
2022-08-28T23:37:18.899Z,101347.06
2022-08-28T23:39:46.924Z,101356.84
2022-08-28T23:42:17.181Z,101350.00
2022-08-28T23:44:45.692Z,101346.84
2022-08-28T23:47:13.892Z,101346.25
2022-08-28T23:49:42.770Z,101344.66
2022-08-28T23:52:11.107Z,101336.84
2022-08-28T23:54:40.298Z,101330.16
2022-08-28T23:57:09.270Z,101334.25
2022-08-28T23:59:40.501Z,101324.38
